Providence, Rhode Island
Traffic Map
Current Weather Conditions
Providence, Rhode Island
Scattered Clouds
Scattered Clouds
13°
Feels Like: 13°
Wind Chill: 13° Ceiling: Unl
Heat Index: 13° Visibility: 10mi
Dew Point: -3° Wind: 13mph
Humidity: 34% Direction: 290° (WNW)
Pressure: 29.81in Gusts: 0mph
Raw Report DataKPVD 192251Z 29011KT 10SM SCT180 SCT250 13/M03 A2981 RMK AO2 SLP094 T01281028
Traffic Incident Summary
Active as of:
Severity:
Category:
InformationThere was an issue retrieving the traffic information for this location. Please try a different location or try again shortly.
Advertisements
Track Severe Weather on mobile